createdAt,value
2022-09-28T00:02:08.115Z,7.77
2022-09-28T00:04:37.028Z,9.30
2022-09-28T00:07:04.556Z,12.57
2022-09-28T00:09:32.290Z,11.60
2022-09-28T00:11:59.976Z,11.50
2022-09-28T00:14:27.612Z,9.93
2022-09-28T00:16:55.174Z,10.23
2022-09-28T00:19:22.874Z,8.10
2022-09-28T00:21:51.751Z,9.90
2022-09-28T00:24:24.032Z,10.70
2022-09-28T00:26:54.832Z,9.23
2022-09-28T00:29:24.874Z,14.10
2022-09-28T00:31:53.573Z,13.27
2022-09-28T00:34:21.876Z,13.30
2022-09-28T00:36:50.107Z,8.73
2022-09-28T00:39:19.598Z,10.87
2022-09-28T00:41:47.929Z,11.27
2022-09-28T00:44:37.050Z,10.97
2022-09-28T00:47:17.164Z,9.57
2022-09-28T00:49:48.027Z,8.77
2022-09-28T00:52:17.552Z,16.40
2022-09-28T00:54:48.477Z,11.93
2022-09-28T00:57:18.616Z,11.63
2022-09-28T00:59:46.501Z,10.47
2022-09-28T01:02:14.232Z,8.67
2022-09-28T01:04:41.814Z,8.67
2022-09-28T01:07:10.164Z,11.00
2022-09-28T01:09:40.600Z,11.30
2022-09-28T01:12:10.021Z,10.53
2022-09-28T01:14:37.578Z,13.20
2022-09-28T01:17:09.865Z,10.27
2022-09-28T01:20:08.660Z,20.23
2022-09-28T01:22:53.942Z,9.97
2022-09-28T01:25:26.237Z,9.27
2022-09-28T01:27:56.030Z,7.80
2022-09-28T01:30:23.731Z,7.80
2022-09-28T01:32:55.224Z,8.90
2022-09-28T01:35:26.617Z,8.73
2022-09-28T01:37:57.171Z,13.17
2022-09-28T01:40:27.678Z,10.20
2022-09-28T01:43:00.521Z,9.17
2022-09-28T01:45:31.169Z,10.47
2022-09-28T01:48:01.283Z,9.80
2022-09-28T01:50:30.936Z,12.83
2022-09-28T01:53:06.157Z,8.93
2022-09-28T01:55:35.973Z,10.13
2022-09-28T01:58:11.046Z,10.03
2022-09-28T02:00:41.441Z,8.50
2022-09-28T02:03:12.395Z,10.47
2022-09-28T02:05:49.346Z,11.67
2022-09-28T02:08:22.346Z,9.13
2022-09-28T02:10:56.962Z,7.50
2022-09-28T02:13:29.370Z,11.30
2022-09-28T02:15:59.945Z,13.33
2022-09-28T02:18:27.516Z,8.20
2022-09-28T02:21:00.538Z,9.37
2022-09-28T02:23:30.086Z,10.03
2022-09-28T02:26:02.558Z,9.60
2022-09-28T02:28:32.368Z,18.40
2022-09-28T02:31:00.035Z,14.90
2022-09-28T02:33:31.325Z,10.20
2022-09-28T02:35:59.900Z,9.50
2022-09-28T02:38:29.429Z,10.40
2022-09-28T02:41:05.204Z,12.00
2022-09-28T02:43:40.974Z,10.80
2022-09-28T02:46:15.564Z,14.77
2022-09-28T02:49:10.463Z,11.50
2022-09-28T02:51:53.182Z,14.40
2022-09-28T02:54:48.593Z,11.80
2022-09-28T02:57:28.520Z,12.97
2022-09-28T03:00:05.506Z,10.40
2022-09-28T03:02:36.847Z,12.53
2022-09-28T03:05:14.122Z,14.93
2022-09-28T03:07:46.491Z,15.47
2022-09-28T03:10:18.088Z,11.67
2022-09-28T03:12:46.230Z,16.07
2022-09-28T03:15:22.448Z,12.13
2022-09-28T03:17:50.190Z,11.30
2022-09-28T03:20:18.213Z,11.50
2022-09-28T03:23:00.246Z,11.90
2022-09-28T03:25:33.400Z,13.60
2022-09-28T03:28:01.268Z,14.60
2022-09-28T03:30:32.286Z,12.60
2022-09-28T03:33:00.467Z,11.37
2022-09-28T03:35:30.381Z,11.83
2022-09-28T03:37:58.327Z,16.03
2022-09-28T03:40:31.539Z,12.10
2022-09-28T03:42:59.926Z,21.90
2022-09-28T03:45:27.711Z,23.63
2022-09-28T03:47:56.727Z,22.80
2022-09-28T03:50:24.278Z,29.97
2022-09-28T03:52:51.819Z,27.30
2022-09-28T03:55:19.382Z,24.17
2022-09-28T03:57:54.189Z,29.03
2022-09-28T04:00:22.091Z,26.00
2022-09-28T04:02:49.765Z,32.43
2022-09-28T04:05:18.522Z,33.00
2022-09-28T04:07:46.138Z,31.10
2022-09-28T04:10:14.138Z,31.03
2022-09-28T04:12:41.773Z,41.37
2022-09-28T04:15:10.044Z,42.83
2022-09-28T04:17:40.274Z,51.97
2022-09-28T04:20:14.152Z,39.10
2022-09-28T04:22:50.323Z,38.97
2022-09-28T04:25:18.020Z,39.63
2022-09-28T04:28:03.289Z,34.33
2022-09-28T04:30:31.190Z,41.37
2022-09-28T04:32:58.801Z,36.73
2022-09-28T04:35:29.463Z,57.57
2022-09-28T04:37:58.404Z,48.40
2022-09-28T04:40:26.144Z,95.63
2022-09-28T04:42:54.875Z,64.87
2022-09-28T04:45:22.832Z,58.40
2022-09-28T04:47:51.459Z,70.93
2022-09-28T04:50:54.508Z,63.77
2022-09-28T04:53:25.856Z,102.90
2022-09-28T04:55:58.827Z,75.90
2022-09-28T04:58:27.217Z,81.80
2022-09-28T05:00:57.951Z,50.10
2022-09-28T05:03:45.851Z,66.60
2022-09-28T05:06:32.064Z,45.23
2022-09-28T05:09:05.013Z,55.27
2022-09-28T05:11:32.752Z,68.23
2022-09-28T05:14:00.767Z,61.40
2022-09-28T05:16:30.016Z,44.60
2022-09-28T05:19:34.824Z,96.63
2022-09-28T05:22:06.103Z,57.63
2022-09-28T05:24:42.714Z,70.40
2022-09-28T05:27:10.774Z,52.13
2022-09-28T05:29:38.531Z,65.67
2022-09-28T05:32:24.628Z,54.00
2022-09-28T05:35:11.727Z,64.63
2022-09-28T05:37:43.637Z,44.83
2022-09-28T05:40:13.571Z,81.90
2022-09-28T05:42:41.593Z,51.40
2022-09-28T05:45:10.523Z,62.47
2022-09-28T05:47:41.155Z,51.97
2022-09-28T05:50:11.966Z,41.30
2022-09-28T05:52:40.373Z,44.40
2022-09-28T05:55:10.024Z,72.53
2022-09-28T05:57:39.301Z,40.63
2022-09-28T06:00:09.502Z,47.90
2022-09-28T06:02:59.983Z,43.33
2022-09-28T06:05:28.905Z,52.10
2022-09-28T06:07:57.655Z,60.20
2022-09-28T06:10:25.600Z,37.90
2022-09-28T06:12:59.451Z,50.73
2022-09-28T06:15:29.061Z,45.40
2022-09-28T06:17:58.495Z,46.27
2022-09-28T06:20:49.217Z,41.23
2022-09-28T06:23:18.147Z,56.90
2022-09-28T06:25:46.024Z,44.83
2022-09-28T06:28:15.943Z,48.83
2022-09-28T06:30:44.993Z,44.33
2022-09-28T06:33:17.806Z,41.90
2022-09-28T06:35:45.476Z,38.40
2022-09-28T06:38:13.137Z,48.70
2022-09-28T06:40:40.939Z,47.07
2022-09-28T06:43:10.917Z,53.80
2022-09-28T06:45:58.856Z,37.77
2022-09-28T06:48:46.981Z,44.43
2022-09-28T06:51:20.055Z,41.90
2022-09-28T06:54:10.502Z,31.50
2022-09-28T06:56:41.410Z,48.97
2022-09-28T06:59:09.369Z,47.13
2022-09-28T07:01:40.039Z,42.33
2022-09-28T07:04:28.422Z,50.70
2022-09-28T07:07:16.268Z,34.83
2022-09-28T07:09:55.364Z,53.57
2022-09-28T07:12:43.669Z,56.00
2022-09-28T07:15:29.421Z,39.23
2022-09-28T07:18:02.809Z,43.17
2022-09-28T07:20:35.646Z,33.20
2022-09-28T07:23:18.566Z,29.87
2022-09-28T07:26:08.486Z,33.53
2022-09-28T07:28:56.299Z,34.80
2022-09-28T07:31:33.754Z,55.17
2022-09-28T07:34:23.555Z,41.07
2022-09-28T07:37:07.072Z,44.07
2022-09-28T07:39:55.291Z,41.43
2022-09-28T07:42:22.010Z,40.40
2022-09-28T07:44:49.736Z,39.30
2022-09-28T07:47:18.857Z,42.63
2022-09-28T07:50:07.336Z,40.93
2022-09-28T07:52:41.208Z,40.00
2022-09-28T07:55:20.145Z,37.53
2022-09-28T07:58:08.997Z,40.77
2022-09-28T08:01:01.060Z,38.37
2022-09-28T08:03:29.208Z,33.80
2022-09-28T08:06:00.477Z,37.00
2022-09-28T08:08:28.826Z,42.97
2022-09-28T08:10:57.205Z,37.30
2022-09-28T08:13:45.776Z,42.40
2022-09-28T08:16:33.507Z,40.37
2022-09-28T08:19:14.712Z,44.97
2022-09-28T08:21:45.768Z,38.83
2022-09-28T08:24:15.507Z,43.00
2022-09-28T08:26:44.014Z,43.00
2022-09-28T08:29:13.377Z,38.10
2022-09-28T08:31:50.184Z,45.33
2022-09-28T08:34:38.636Z,45.33
2022-09-28T08:37:10.423Z,56.73
2022-09-28T08:39:58.464Z,50.60
2022-09-28T08:43:02.345Z,45.17
2022-09-28T08:46:01.254Z,41.77
2022-09-28T08:49:13.350Z,40.93
2022-09-28T08:51:57.136Z,47.10
2022-09-28T08:54:49.000Z,45.83
2022-09-28T08:57:30.802Z,34.40
2022-09-28T08:59:59.948Z,45.73
2022-09-28T09:02:33.691Z,42.40
2022-09-28T09:05:19.081Z,34.53
2022-09-28T09:08:09.502Z,34.53
2022-09-28T09:10:49.801Z,32.83
2022-09-28T09:13:52.787Z,33.37
2022-09-28T09:16:33.414Z,38.60
2022-09-28T09:19:30.615Z,35.43
2022-09-28T09:22:33.079Z,35.67
2022-09-28T09:25:05.594Z,32.70
2022-09-28T09:27:44.989Z,28.97
2022-09-28T09:30:17.124Z,30.60
2022-09-28T09:33:05.155Z,34.40
2022-09-28T09:35:51.192Z,30.93
2022-09-28T09:38:58.107Z,35.70
2022-09-28T09:41:40.802Z,31.27
2022-09-28T09:44:44.060Z,31.50
2022-09-28T09:47:33.124Z,29.23
2022-09-28T09:50:12.740Z,33.23
2022-09-28T09:52:47.664Z,26.37
2022-09-28T09:55:18.145Z,27.17
2022-09-28T09:58:05.789Z,25.50
2022-09-28T10:00:42.543Z,28.63
2022-09-28T10:03:23.139Z,24.97
2022-09-28T10:06:00.467Z,27.73
2022-09-28T10:08:29.556Z,24.13
2022-09-28T10:11:07.625Z,24.00
2022-09-28T10:13:39.147Z,26.67
2022-09-28T10:16:21.505Z,25.87
2022-09-28T10:18:56.982Z,27.67
2022-09-28T10:21:43.476Z,28.60
2022-09-28T10:24:29.297Z,30.77
2022-09-28T10:27:00.679Z,31.63
2022-09-28T10:29:31.438Z,28.93
2022-09-28T10:32:00.421Z,23.23
2022-09-28T10:34:35.528Z,29.40
2022-09-28T10:37:11.669Z,24.30
2022-09-28T10:40:06.190Z,27.83
2022-09-28T10:42:36.164Z,27.37
2022-09-28T10:45:08.238Z,23.20
2022-09-28T10:47:39.053Z,21.40
2022-09-28T10:50:20.817Z,18.23
2022-09-28T10:52:49.014Z,18.67
2022-09-28T10:55:58.498Z,16.77
2022-09-28T10:58:28.740Z,18.40
2022-09-28T11:01:06.114Z,21.73
2022-09-28T11:03:35.324Z,16.57
2022-09-28T11:06:08.115Z,17.00
2022-09-28T11:08:40.357Z,18.33
2022-09-28T11:11:10.966Z,19.33
2022-09-28T11:13:45.250Z,22.73
2022-09-28T11:16:21.439Z,16.67
2022-09-28T11:18:50.539Z,18.33
2022-09-28T11:21:20.045Z,20.67
2022-09-28T11:24:08.132Z,22.30
2022-09-28T11:26:43.219Z,16.83
2022-09-28T11:29:22.255Z,17.50
2022-09-28T11:32:03.220Z,18.50
2022-09-28T11:34:58.083Z,17.67
2022-09-28T11:37:51.591Z,17.23
2022-09-28T11:40:40.748Z,12.53
2022-09-28T11:43:16.752Z,10.30
2022-09-28T11:45:51.095Z,10.73
2022-09-28T11:48:22.613Z,14.60
2022-09-28T11:50:54.734Z,11.13
2022-09-28T11:53:28.428Z,8.60
2022-09-28T11:56:08.841Z,12.10
2022-09-28T11:58:40.367Z,6.50
2022-09-28T12:01:18.955Z,8.53
2022-09-28T12:04:26.506Z,6.60
2022-09-28T12:06:59.027Z,5.70
2022-09-28T12:09:37.041Z,13.03
2022-09-28T12:12:22.330Z,7.83
2022-09-28T12:14:52.318Z,10.10
2022-09-28T12:17:23.756Z,10.50
2022-09-28T12:19:55.344Z,6.50
2022-09-28T12:22:27.964Z,4.80
2022-09-28T12:24:56.701Z,5.00
2022-09-28T12:27:29.053Z,7.10
2022-09-28T12:29:59.199Z,5.90
2022-09-28T12:32:30.512Z,10.63
2022-09-28T12:34:58.657Z,5.80
2022-09-28T12:37:40.147Z,8.77
2022-09-28T12:40:25.784Z,8.00
2022-09-28T12:43:11.776Z,7.30
2022-09-28T12:46:10.820Z,4.23
2022-09-28T12:49:33.209Z,3.73
2022-09-28T12:51:48.733Z,12.70
2022-09-28T12:54:32.888Z,4.40
2022-09-28T12:57:11.385Z,3.73
2022-09-28T12:59:40.915Z,7.70
2022-09-28T13:02:38.728Z,4.83
2022-09-28T13:05:18.986Z,3.83
2022-09-28T13:07:51.049Z,4.93
2022-09-28T13:10:25.690Z,4.80
2022-09-28T13:13:17.990Z,3.80
2022-09-28T13:15:54.165Z,3.07
2022-09-28T13:18:24.009Z,5.40
2022-09-28T13:21:03.918Z,8.80
2022-09-28T13:23:35.663Z,2.50
2022-09-28T13:26:13.982Z,4.33
2022-09-28T13:28:42.238Z,4.07
2022-09-28T13:31:10.651Z,3.93
2022-09-28T13:33:40.238Z,5.60
2022-09-28T13:36:38.821Z,3.70
2022-09-28T13:39:42.232Z,3.20
2022-09-28T13:42:12.888Z,4.03
2022-09-28T13:45:18.377Z,3.83
2022-09-28T13:48:12.941Z,4.00
2022-09-28T13:50:52.211Z,4.53
2022-09-28T13:53:25.172Z,3.53
2022-09-28T13:55:58.386Z,5.90
2022-09-28T13:58:30.143Z,3.43
2022-09-28T14:01:01.028Z,5.10
2022-09-28T14:03:43.311Z,4.43
2022-09-28T14:06:23.599Z,4.03
2022-09-28T14:09:10.360Z,3.70
2022-09-28T14:11:43.628Z,8.30
2022-09-28T14:14:27.549Z,4.03
2022-09-28T14:17:25.261Z,4.93
2022-09-28T14:19:54.494Z,2.80
2022-09-28T14:22:24.730Z,4.00
2022-09-28T14:25:02.183Z,3.50
2022-09-28T14:27:55.420Z,3.60
2022-09-28T14:30:26.766Z,3.47
2022-09-28T14:32:57.554Z,2.10
2022-09-28T14:35:29.633Z,4.57
2022-09-28T14:38:18.724Z,3.70
2022-09-28T14:41:12.603Z,4.20
2022-09-28T14:44:02.472Z,3.33
2022-09-28T14:46:39.304Z,3.27
2022-09-28T14:49:50.302Z,3.87
2022-09-28T14:52:39.574Z,5.30
2022-09-28T14:55:14.866Z,3.03
2022-09-28T14:57:43.414Z,2.47
2022-09-28T15:00:18.564Z,5.20
2022-09-28T15:02:49.864Z,3.30
2022-09-28T15:05:21.351Z,2.60
2022-09-28T15:07:51.708Z,5.80
2022-09-28T15:10:27.840Z,3.43
2022-09-28T15:12:56.776Z,3.10
2022-09-28T15:15:31.141Z,3.23
2022-09-28T15:18:06.051Z,3.70
2022-09-28T15:20:38.584Z,5.80
2022-09-28T15:23:06.127Z,5.27
2022-09-28T15:25:35.150Z,3.20
2022-09-28T15:28:16.300Z,2.83
2022-09-28T15:30:44.059Z,7.03
2022-09-28T15:33:41.929Z,3.20
2022-09-28T15:36:16.700Z,6.87
2022-09-28T15:38:55.369Z,3.07
2022-09-28T15:41:24.998Z,2.50
2022-09-28T15:44:08.427Z,3.97
2022-09-28T15:46:37.661Z,4.20
2022-09-28T15:49:06.061Z,4.80
2022-09-28T15:51:47.002Z,7.97
2022-09-28T15:54:19.280Z,3.47
2022-09-28T15:56:52.315Z,7.70
2022-09-28T15:59:26.506Z,7.10
2022-09-28T16:02:07.618Z,3.80
2022-09-28T16:04:50.253Z,3.47
2022-09-28T16:07:24.548Z,3.43
2022-09-28T16:10:00.359Z,5.27
2022-09-28T16:12:32.110Z,3.13
2022-09-28T16:15:03.902Z,5.43
2022-09-28T16:17:33.630Z,4.03
2022-09-28T16:20:03.543Z,4.00
2022-09-28T16:22:33.461Z,4.70
2022-09-28T16:25:02.809Z,4.23
2022-09-28T16:27:33.697Z,4.87
2022-09-28T16:30:16.853Z,5.40
2022-09-28T16:32:51.710Z,4.60
2022-09-28T16:35:22.943Z,4.50
2022-09-28T16:37:58.462Z,5.23
2022-09-28T16:40:26.617Z,4.93
2022-09-28T16:42:56.114Z,3.40
2022-09-28T16:45:24.274Z,7.50
2022-09-28T16:47:53.020Z,5.77
2022-09-28T16:50:22.225Z,8.77
2022-09-28T16:53:16.200Z,8.67
2022-09-28T16:55:44.127Z,7.53
2022-09-28T16:58:13.090Z,15.77
2022-09-28T17:00:43.495Z,9.27
2022-09-28T17:03:14.421Z,8.47
2022-09-28T17:05:42.901Z,7.63
2022-09-28T17:08:17.899Z,6.70
2022-09-28T17:11:13.112Z,7.70
2022-09-28T17:13:39.826Z,7.30
2022-09-28T17:16:11.434Z,7.60
2022-09-28T17:18:40.010Z,10.10
2022-09-28T17:21:11.261Z,8.87
2022-09-28T17:23:41.134Z,9.03
2022-09-28T17:26:09.974Z,8.87
2022-09-28T17:28:37.918Z,11.03
2022-09-28T17:31:11.419Z,10.03
2022-09-28T17:33:39.502Z,9.10
2022-09-28T17:36:08.002Z,8.43
2022-09-28T17:38:36.531Z,13.30
2022-09-28T17:41:06.045Z,10.73
2022-09-28T17:43:34.048Z,14.23
2022-09-28T17:46:02.506Z,9.10
2022-09-28T17:48:31.228Z,10.33
2022-09-28T17:50:59.837Z,12.20
2022-09-28T17:53:28.449Z,11.50
2022-09-28T17:55:56.348Z,11.20
2022-09-28T17:58:25.634Z,12.80
2022-09-28T18:00:53.333Z,13.10
2022-09-28T18:03:22.574Z,13.47
2022-09-28T18:05:54.183Z,17.90
2022-09-28T18:08:22.642Z,12.73
2022-09-28T18:10:51.644Z,13.60
2022-09-28T18:13:35.543Z,12.13
2022-09-28T18:16:05.870Z,14.87
2022-09-28T18:18:38.020Z,18.37
2022-09-28T18:21:06.242Z,13.33
2022-09-28T18:26:31.701Z,20.00
2022-09-28T18:28:59.800Z,15.87
2022-09-28T18:31:43.520Z,15.43
2022-09-28T18:34:19.735Z,19.80
2022-09-28T18:36:48.396Z,21.43
2022-09-28T18:39:16.825Z,17.57
2022-09-28T18:41:44.846Z,17.73
2022-09-28T18:44:13.302Z,19.10
2022-09-28T18:54:05.185Z,140.30
2022-09-28T18:56:44.972Z,192.63
2022-09-28T19:02:44.584Z,28.43
2022-09-28T19:05:54.649Z,37.63
2022-09-28T19:14:33.243Z,28.23
2022-09-28T19:23:30.011Z,22.43
2022-09-28T19:26:16.113Z,23.70
2022-09-28T19:28:44.063Z,26.03
2022-09-28T19:31:13.472Z,24.90
2022-09-28T19:33:45.744Z,33.60
2022-09-28T19:36:34.095Z,27.87
2022-09-28T19:39:07.813Z,29.47
2022-09-28T19:41:51.556Z,28.50
2022-09-28T19:44:29.082Z,25.57
2022-09-28T19:46:58.977Z,23.53
2022-09-28T19:49:33.805Z,23.43
2022-09-28T19:52:13.410Z,24.97
2022-09-28T19:57:30.970Z,23.70
2022-09-28T20:00:02.434Z,27.93
2022-09-28T20:02:34.149Z,27.20
2022-09-28T20:05:01.872Z,26.13
2022-09-28T20:07:33.330Z,24.43
2022-09-28T20:10:01.031Z,27.60
2022-09-28T20:12:28.728Z,29.00
2022-09-28T20:14:56.842Z,24.57
2022-09-28T20:17:24.468Z,24.50
2022-09-28T20:19:52.151Z,24.63
2022-09-28T20:22:20.173Z,24.23
2022-09-28T20:24:49.257Z,29.93
2022-09-28T20:27:17.001Z,25.20
2022-09-28T20:29:44.675Z,28.07
2022-09-28T20:32:12.522Z,24.93
2022-09-28T20:34:40.232Z,23.87
2022-09-28T20:37:07.912Z,28.97
2022-09-28T20:39:35.660Z,25.60
2022-09-28T20:42:04.845Z,27.93
2022-09-28T20:44:32.445Z,24.73
2022-09-28T20:47:00.769Z,22.90
2022-09-28T20:49:28.499Z,25.60
2022-09-28T20:51:56.258Z,25.17
2022-09-28T20:54:23.903Z,26.67
2022-09-28T20:56:51.532Z,25.80
2022-09-28T20:59:22.811Z,26.67
2022-09-28T21:01:52.432Z,30.10
2022-09-28T21:04:20.567Z,26.43
2022-09-28T21:06:48.430Z,25.80
2022-09-28T21:09:16.175Z,30.17
2022-09-28T21:11:43.763Z,25.13
2022-09-28T21:14:11.459Z,27.37
2022-09-28T21:16:40.883Z,23.40
2022-09-28T21:19:08.492Z,21.40
2022-09-28T21:21:36.430Z,27.20
2022-09-28T21:24:04.743Z,22.23
2022-09-28T21:26:32.882Z,23.80
2022-09-28T21:29:01.763Z,23.53
2022-09-28T21:31:32.423Z,22.97
2022-09-28T21:34:01.873Z,29.03
2022-09-28T21:36:29.611Z,22.37
2022-09-28T21:38:57.594Z,26.73
2022-09-28T21:41:25.908Z,24.03
2022-09-28T21:43:53.615Z,22.70
2022-09-28T21:46:21.384Z,22.17
2022-09-28T21:48:52.328Z,18.50
2022-09-28T21:51:21.724Z,20.80
2022-09-28T21:53:49.694Z,21.90
2022-09-28T21:56:17.857Z,18.83
2022-09-28T21:58:45.725Z,18.70
2022-09-28T22:01:15.517Z,19.90
2022-09-28T22:03:44.193Z,19.83
2022-09-28T22:06:12.512Z,20.70
2022-09-28T22:08:41.520Z,18.30
2022-09-28T22:11:10.645Z,18.73
2022-09-28T22:13:41.035Z,19.20
2022-09-28T22:16:09.000Z,22.20
2022-09-28T22:18:36.631Z,20.80
2022-09-28T22:21:07.183Z,24.67
2022-09-28T22:23:35.138Z,17.53
2022-09-28T22:26:07.118Z,22.47
2022-09-28T22:28:35.305Z,22.17
2022-09-28T22:31:03.118Z,21.73
2022-09-28T22:33:30.933Z,20.90
2022-09-28T22:35:58.613Z,25.90
2022-09-28T22:38:26.223Z,26.30
2022-09-28T22:40:55.492Z,19.67
2022-09-28T22:43:25.036Z,19.73
2022-09-28T22:46:01.801Z,20.67
2022-09-28T22:48:29.639Z,24.03
2022-09-28T22:50:57.242Z,24.63
2022-09-28T22:53:25.201Z,19.60
2022-09-28T22:55:53.170Z,22.00
2022-09-28T22:58:20.889Z,28.57
2022-09-28T23:00:50.043Z,21.63
2022-09-28T23:03:18.111Z,24.40
2022-09-28T23:05:52.835Z,24.80
2022-09-28T23:08:20.847Z,22.47
2022-09-28T23:10:48.530Z,22.13
2022-09-28T23:13:16.134Z,23.40
2022-09-28T23:15:43.754Z,20.93
2022-09-28T23:18:12.691Z,19.97
2022-09-28T23:20:40.284Z,25.73
2022-09-28T23:23:07.852Z,23.10
2022-09-28T23:25:35.614Z,21.00
2022-09-28T23:28:03.251Z,20.47
2022-09-28T23:30:31.241Z,22.57
2022-09-28T23:32:58.877Z,21.10
2022-09-28T23:35:28.274Z,22.23
2022-09-28T23:37:55.866Z,22.10
2022-09-28T23:40:23.671Z,19.13
2022-09-28T23:42:51.253Z,25.57
2022-09-28T23:45:20.717Z,19.57
2022-09-28T23:47:48.876Z,20.03
2022-09-28T23:50:16.732Z,22.80
2022-09-28T23:52:48.692Z,15.93
2022-09-28T23:55:16.776Z,20.67
2022-09-28T23:57:45.008Z,20.60
